< < Back
Terminal Aerodrome Forecast


Current Version              Previous Versions:   1  2  3  4  5  6  7  8  9  

Terminal Aerodrome Forecast

334
FTUS42 KTAE 120932 AAB
TAFVLD
TAF AMD
KVLD 120932Z 1210/1306 20003KT 3SM BR BKN025
      TEMPO 1210/1213 1SM BR
     FM121500 23006KT P6SM BKN020
     FM121700 24008G18KT P6SM SCT025=

Latest METAR

941
SAUS70 KWBC 121800
MTRVLD
METAR KVLD 121753Z VRB04KT 10SM FEW046 23/12 A3013 RMK AO2 SLP210
T02330117 10233 20111 58017


USA.gov is the U.S. government's official web portal to all federal, state and local government web resources and services.